createdAt,value
2022-08-10T00:01:36.437Z,6.50
2022-08-10T00:04:05.316Z,8.98
2022-08-10T00:06:33.040Z,7.70
2022-08-10T00:09:00.386Z,7.57
2022-08-10T00:11:29.097Z,8.63
2022-08-10T00:13:57.890Z,9.75
2022-08-10T00:16:28.185Z,8.82
2022-08-10T00:18:55.769Z,13.20
2022-08-10T00:21:23.323Z,7.90
2022-08-10T00:23:54.987Z,6.55
2022-08-10T00:26:24.031Z,11.25
2022-08-10T00:28:51.412Z,8.57
2022-08-10T00:31:19.139Z,10.95
2022-08-10T00:33:46.450Z,8.00
2022-08-10T00:36:14.053Z,7.63
2022-08-10T00:38:42.754Z,9.93
2022-08-10T00:41:10.151Z,10.10
2022-08-10T00:43:37.698Z,7.18
2022-08-10T00:46:05.289Z,11.80
2022-08-10T00:48:32.965Z,6.82
2022-08-10T00:51:01.692Z,9.82
2022-08-10T00:53:29.496Z,8.43
2022-08-10T00:57:14.270Z,7.90
2022-08-10T00:58:48.238Z,9.73
2022-08-10T01:02:08.245Z,8.07
2022-08-10T01:04:54.248Z,10.27
2022-08-10T01:07:27.868Z,9.50
2022-08-10T01:10:30.908Z,9.55
2022-08-10T01:13:11.299Z,12.32
2022-08-10T01:15:48.103Z,8.10
2022-08-10T01:18:24.102Z,11.20
2022-08-10T01:21:29.899Z,10.57
2022-08-10T01:23:57.319Z,7.72
2022-08-10T01:26:49.548Z,13.32
2022-08-10T01:29:31.191Z,9.48
2022-08-10T01:32:05.226Z,13.32
2022-08-10T01:34:42.789Z,9.07
2022-08-10T01:37:17.125Z,13.93
2022-08-10T01:39:52.045Z,13.02
2022-08-10T01:42:21.305Z,6.80
2022-08-10T01:44:57.621Z,12.25
2022-08-10T01:47:48.622Z,11.88
2022-08-10T01:50:53.346Z,15.27
2022-08-10T01:53:53.929Z,10.90
2022-08-10T01:56:23.803Z,10.93
2022-08-10T01:58:58.094Z,10.60
2022-08-10T02:01:30.846Z,9.38
2022-08-10T02:04:04.821Z,11.45
2022-08-10T02:06:45.449Z,11.45
2022-08-10T02:09:17.405Z,11.75
2022-08-10T02:11:57.203Z,13.93
2022-08-10T02:14:49.756Z,10.60
2022-08-10T02:17:58.287Z,8.70
2022-08-10T02:20:14.305Z,14.20
2022-08-10T02:22:44.597Z,14.32
2022-08-10T02:25:40.901Z,11.02
2022-08-10T02:28:05.142Z,15.30
2022-08-10T02:30:33.728Z,12.20
2022-08-10T02:33:03.959Z,15.05
2022-08-10T02:35:54.426Z,17.23
2022-08-10T02:38:59.493Z,12.80
2022-08-10T02:45:16.071Z,13.00
2022-08-10T02:45:24.118Z,9.97
2022-08-10T02:47:23.688Z,11.70
2022-08-10T02:50:04.101Z,19.02
2022-08-10T02:52:57.235Z,13.38
2022-08-10T02:55:26.934Z,13.05
2022-08-10T02:58:16.676Z,9.38
2022-08-10T03:00:51.806Z,11.02
2022-08-10T03:03:26.246Z,12.95
2022-08-10T03:06:11.887Z,20.52
2022-08-10T03:08:43.834Z,13.10
2022-08-10T03:12:36.177Z,17.77
2022-08-10T03:14:10.755Z,13.70
2022-08-10T03:16:39.516Z,13.63
2022-08-10T03:20:33.505Z,10.85
2022-08-10T03:21:59.263Z,10.85
2022-08-10T03:24:32.956Z,9.27
2022-08-10T03:27:02.820Z,13.95
2022-08-10T03:30:28.391Z,15.40
2022-08-10T03:32:23.460Z,16.33
2022-08-10T03:34:52.336Z,14.65
2022-08-10T03:37:20.250Z,18.23
2022-08-10T03:39:47.747Z,16.10
2022-08-10T03:42:16.500Z,11.38
2022-08-10T03:44:50.220Z,12.38
2022-08-10T03:47:19.722Z,13.88
2022-08-10T03:49:49.844Z,11.00
2022-08-10T03:52:18.645Z,15.45
2022-08-10T03:54:47.171Z,15.52
2022-08-10T03:57:16.136Z,11.63
2022-08-10T03:59:43.717Z,15.82
2022-08-10T04:02:45.116Z,15.75
2022-08-10T04:05:00.373Z,13.40
2022-08-10T04:07:29.383Z,16.42
2022-08-10T04:09:59.832Z,14.77
2022-08-10T04:12:27.163Z,14.43
2022-08-10T04:14:54.572Z,11.05
2022-08-10T04:18:02.667Z,13.90
2022-08-10T04:20:17.606Z,14.40
2022-08-10T04:22:52.517Z,11.98
2022-08-10T04:25:22.983Z,14.93
2022-08-10T04:27:51.733Z,10.98
2022-08-10T04:30:19.858Z,11.43
2022-08-10T04:32:52.460Z,16.60
2022-08-10T04:35:22.667Z,16.27
2022-08-10T04:37:51.637Z,11.80
2022-08-10T04:40:28.382Z,9.57
2022-08-10T04:43:02.212Z,9.95
2022-08-10T04:45:48.263Z,12.70
2022-08-10T04:48:42.866Z,14.70
2022-08-10T04:51:17.662Z,11.45
2022-08-10T04:54:05.808Z,12.93
2022-08-10T04:56:40.018Z,14.75
2022-08-10T04:59:09.332Z,13.35
2022-08-10T05:02:21.340Z,11.13
2022-08-10T05:04:34.789Z,17.30
2022-08-10T05:07:16.773Z,10.93
2022-08-10T05:10:02.067Z,10.55
2022-08-10T05:12:38.826Z,22.88
2022-08-10T05:15:11.871Z,11.38
2022-08-10T05:17:40.609Z,13.70
2022-08-10T05:20:10.215Z,13.82
2022-08-10T05:22:42.798Z,13.57
2022-08-10T05:25:12.718Z,17.58
2022-08-10T05:27:41.211Z,21.55
2022-08-10T05:30:11.617Z,18.95
2022-08-10T05:32:58.358Z,17.25
2022-08-10T05:35:28.960Z,18.48
2022-08-10T05:38:18.247Z,9.07
2022-08-10T05:40:48.318Z,15.18
2022-08-10T05:43:18.364Z,19.05
2022-08-10T05:46:19.510Z,19.83
2022-08-10T05:48:53.980Z,17.60
2022-08-10T05:51:24.585Z,14.18
2022-08-10T05:54:02.618Z,19.23
2022-08-10T05:56:56.491Z,13.43
2022-08-10T06:00:31.106Z,18.02
2022-08-10T06:02:41.307Z,13.95
2022-08-10T06:05:17.230Z,18.95
2022-08-10T06:08:10.122Z,17.60
2022-08-10T06:12:16.722Z,20.52
2022-08-10T06:14:12.903Z,24.80
2022-08-10T06:16:36.011Z,28.33
2022-08-10T06:19:04.146Z,20.73
2022-08-10T06:21:34.584Z,26.77
2022-08-10T06:24:03.006Z,30.17
2022-08-10T06:26:30.566Z,17.42
2022-08-10T06:29:07.093Z,19.52
2022-08-10T06:31:48.137Z,13.63
2022-08-10T06:34:23.723Z,21.15
2022-08-10T06:36:53.212Z,21.48
2022-08-10T06:39:33.536Z,17.23
2022-08-10T06:42:18.544Z,16.70
2022-08-10T06:44:58.657Z,15.20
2022-08-10T06:47:34.104Z,11.65
2022-08-10T06:50:09.498Z,10.82
2022-08-10T06:52:38.425Z,21.30
2022-08-10T06:55:10.289Z,17.42
2022-08-10T06:57:40.519Z,15.25
2022-08-10T07:00:10.288Z,17.63
2022-08-10T07:02:57.480Z,15.02
2022-08-10T07:05:28.153Z,15.32
2022-08-10T07:07:59.149Z,18.40
2022-08-10T07:10:46.012Z,12.85
2022-08-10T07:14:15.458Z,15.85
2022-08-10T07:16:14.592Z,22.13
2022-08-10T07:18:45.029Z,17.52
2022-08-10T07:21:13.948Z,16.40
2022-08-10T07:23:57.053Z,18.90
2022-08-10T07:26:31.184Z,27.80
2022-08-10T07:29:03.522Z,15.82
2022-08-10T07:31:55.649Z,14.55
2022-08-10T07:34:29.114Z,21.33
2022-08-10T07:37:07.839Z,10.27
2022-08-10T07:40:02.799Z,15.18
2022-08-10T07:42:31.324Z,17.83
2022-08-10T07:44:59.982Z,13.73
2022-08-10T07:47:53.884Z,16.88
2022-08-10T07:50:25.546Z,21.40
2022-08-10T07:52:57.779Z,19.70
2022-08-10T07:56:02.142Z,25.83
2022-08-10T07:58:16.241Z,11.70
2022-08-10T08:00:46.348Z,14.70
2022-08-10T08:03:17.348Z,16.75
2022-08-10T08:05:58.346Z,18.15
2022-08-10T08:08:32.195Z,16.00
2022-08-10T08:11:00.636Z,14.93
2022-08-10T08:13:29.611Z,17.83
2022-08-10T08:16:17.021Z,22.10
2022-08-10T08:19:16.278Z,15.30
2022-08-10T08:24:06.551Z,14.73
2022-08-10T08:24:32.489Z,14.05
2022-08-10T08:27:02.405Z,17.48
2022-08-10T08:29:34.537Z,9.13
2022-08-10T08:32:06.105Z,12.00
2022-08-10T08:34:38.119Z,12.15
2022-08-10T08:37:07.297Z,16.27
2022-08-10T08:39:36.972Z,12.73
2022-08-10T08:42:26.444Z,9.88
2022-08-10T08:45:26.520Z,6.38
2022-08-10T08:48:11.724Z,9.15
2022-08-10T08:52:09.985Z,8.70
2022-08-10T08:54:51.275Z,11.65
2022-08-10T08:57:50.499Z,8.43
2022-08-10T09:00:35.938Z,14.30
2022-08-10T09:03:40.279Z,6.45
2022-08-10T09:06:40.803Z,8.20
2022-08-10T09:09:31.646Z,17.50
2022-08-10T09:12:29.307Z,10.82
2022-08-10T09:15:41.068Z,11.25
2022-08-10T09:18:05.391Z,12.70
2022-08-10T09:21:00.173Z,8.77
2022-08-10T09:24:04.479Z,15.30
2022-08-10T09:26:48.158Z,7.28
2022-08-10T09:29:25.881Z,5.90
2022-08-10T09:36:16.039Z,18.48
2022-08-10T09:36:21.269Z,9.20
2022-08-10T09:39:02.842Z,5.13
2022-08-10T09:41:40.013Z,5.25
2022-08-10T09:44:35.772Z,9.82
2022-08-10T09:48:01.408Z,5.05
2022-08-10T09:54:03.764Z,7.82
2022-08-10T09:57:02.988Z,8.80
2022-08-10T10:00:00.118Z,6.93
2022-08-10T10:02:39.210Z,9.32
2022-08-10T10:05:20.294Z,15.57
2022-08-10T10:08:02.170Z,9.10
2022-08-10T10:10:42.200Z,11.80
2022-08-10T10:14:01.869Z,9.23
2022-08-10T10:17:01.840Z,10.25
2022-08-10T10:19:57.845Z,8.27
2022-08-10T10:23:03.226Z,7.03
2022-08-10T10:25:50.830Z,8.75
2022-08-10T10:29:09.822Z,10.07
2022-08-10T10:31:36.350Z,6.63
2022-08-10T10:34:15.083Z,6.85
2022-08-10T10:36:45.321Z,5.15
2022-08-10T10:39:23.761Z,7.20
2022-08-10T10:42:28.951Z,10.60
2022-08-10T10:45:15.321Z,8.38
2022-08-10T10:48:28.977Z,4.78
2022-08-10T10:51:25.065Z,7.18
2022-08-10T10:54:03.079Z,8.48
2022-08-10T10:56:55.160Z,10.23
2022-08-10T10:59:57.395Z,5.80
2022-08-10T11:03:10.267Z,4.70
2022-08-10T11:06:03.816Z,6.22
2022-08-10T11:08:36.585Z,8.57
2022-08-10T11:12:00.031Z,7.55
2022-08-10T11:14:29.318Z,11.18
2022-08-10T11:17:17.467Z,7.80
2022-08-10T11:20:39.008Z,9.48
2022-08-10T11:23:36.509Z,7.35
2022-08-10T11:26:31.570Z,12.25
2022-08-10T11:29:10.063Z,6.32
2022-08-10T11:31:41.925Z,3.92
2022-08-10T11:34:48.931Z,7.15
2022-08-10T11:38:31.118Z,9.63
2022-08-10T11:40:53.271Z,10.48
2022-08-10T11:43:29.023Z,12.18
2022-08-10T11:46:33.467Z,5.97
2022-08-10T11:49:17.939Z,5.93
2022-08-10T11:51:53.202Z,7.15
2022-08-10T11:54:43.450Z,9.57
2022-08-10T11:57:13.036Z,10.88
2022-08-10T11:59:59.250Z,5.43
2022-08-10T12:02:39.408Z,6.65
2022-08-10T12:05:21.514Z,6.82
2022-08-10T12:10:04.071Z,4.40
2022-08-10T12:10:42.765Z,9.90
2022-08-10T12:13:16.912Z,5.32
2022-08-10T12:16:06.513Z,4.28
2022-08-10T12:19:02.058Z,3.58
2022-08-10T12:21:53.917Z,4.22
2022-08-10T12:24:29.475Z,10.30
2022-08-10T12:27:16.349Z,5.35
2022-08-10T12:30:02.051Z,5.32
2022-08-10T12:32:45.546Z,5.83
2022-08-10T12:35:22.721Z,11.40
2022-08-10T12:38:21.607Z,6.28
2022-08-10T12:41:00.938Z,5.10
2022-08-10T12:44:07.488Z,10.48
2022-08-10T12:46:46.168Z,9.55
2022-08-10T12:49:38.657Z,7.30
2022-08-10T12:52:16.912Z,6.78
2022-08-10T12:54:46.478Z,3.65
2022-08-10T12:57:22.393Z,8.77
2022-08-10T12:59:53.706Z,4.30
2022-08-10T13:02:34.029Z,9.43
2022-08-10T13:05:08.798Z,10.95
2022-08-10T13:08:25.326Z,7.40
2022-08-10T13:10:27.683Z,3.83
2022-08-10T13:12:59.062Z,8.30
2022-08-10T13:15:49.771Z,4.97
2022-08-10T13:18:55.057Z,4.70
2022-08-10T13:21:23.519Z,5.35
2022-08-10T13:24:10.906Z,7.75
2022-08-10T13:27:26.421Z,6.75
2022-08-10T13:30:07.049Z,6.75
2022-08-10T13:32:39.491Z,9.23
2022-08-10T13:35:12.649Z,5.63
2022-08-10T13:37:44.014Z,7.32
2022-08-10T13:40:15.381Z,5.70
2022-08-10T13:42:45.713Z,7.38
2022-08-10T13:45:22.676Z,4.82
2022-08-10T13:47:55.998Z,7.75
2022-08-10T13:50:32.027Z,5.30
2022-08-10T13:53:10.088Z,6.80
2022-08-10T13:55:56.422Z,5.18
2022-08-10T13:58:33.063Z,3.95
2022-08-10T14:01:09.057Z,7.20
2022-08-10T14:03:39.905Z,2.75
2022-08-10T14:06:12.940Z,4.32
2022-08-10T14:08:49.193Z,6.13
2022-08-10T14:11:44.937Z,3.42
2022-08-10T14:14:36.169Z,6.60
2022-08-10T14:17:46.028Z,3.90
2022-08-10T14:20:20.906Z,6.40
2022-08-10T14:22:49.591Z,8.25
2022-08-10T14:25:17.019Z,6.07
2022-08-10T14:28:02.172Z,6.90
2022-08-10T14:30:33.068Z,5.78
2022-08-10T14:33:04.693Z,5.82
2022-08-10T14:36:22.034Z,7.05
2022-08-10T14:38:32.097Z,6.22
2022-08-10T14:41:02.478Z,9.95
2022-08-10T14:43:40.149Z,7.90
2022-08-10T14:46:11.142Z,4.63
2022-08-10T14:48:42.305Z,6.72
2022-08-10T14:51:11.263Z,9.43
2022-08-10T14:53:43.107Z,4.25
2022-08-10T14:56:13.566Z,9.77
2022-08-10T14:59:05.784Z,10.70
2022-08-10T15:01:59.904Z,7.38
2022-08-10T15:04:28.967Z,6.15
2022-08-10T15:07:01.282Z,7.78
2022-08-10T15:10:00.516Z,5.47
2022-08-10T15:12:33.535Z,4.95
2022-08-10T15:15:03.144Z,2.40
2022-08-10T15:17:35.163Z,7.25
2022-08-10T15:20:16.211Z,2.17
2022-08-10T15:22:51.146Z,5.00
2022-08-10T15:25:26.222Z,7.60
2022-08-10T15:28:06.375Z,6.10
2022-08-10T15:30:44.171Z,6.32
2022-08-10T15:33:59.373Z,9.70
2022-08-10T15:36:43.038Z,6.93
2022-08-10T15:40:22.508Z,15.27
2022-08-10T15:42:31.534Z,7.63
2022-08-10T15:44:59.111Z,4.75
2022-08-10T15:47:45.605Z,4.68
2022-08-10T15:50:19.304Z,8.55
2022-08-10T15:53:10.048Z,10.55
2022-08-10T15:55:51.430Z,8.95
2022-08-10T15:58:50.100Z,5.22
2022-08-10T16:02:13.970Z,6.43
2022-08-10T16:04:42.075Z,6.95
2022-08-10T16:07:19.502Z,4.32
2022-08-10T16:10:22.902Z,5.60
2022-08-10T16:13:50.317Z,10.18
2022-08-10T16:15:55.370Z,6.00
2022-08-10T16:18:31.861Z,7.50
2022-08-10T16:21:02.905Z,3.40
2022-08-10T16:23:36.847Z,4.38
2022-08-10T16:26:14.862Z,5.78
2022-08-10T16:28:57.835Z,5.60
2022-08-10T16:31:28.322Z,3.63
2022-08-10T16:33:59.593Z,4.28
2022-08-10T16:36:43.192Z,5.95
2022-08-10T16:39:57.151Z,3.65
2022-08-10T16:42:14.864Z,7.95
2022-08-10T16:45:11.544Z,7.47
2022-08-10T16:47:48.111Z,5.47
2022-08-10T16:50:21.312Z,7.90
2022-08-10T16:52:52.255Z,3.30
2022-08-10T16:55:24.382Z,5.95
2022-08-10T16:58:15.205Z,4.35
2022-08-10T17:00:45.244Z,6.88
2022-08-10T17:04:04.932Z,3.63
2022-08-10T17:06:10.928Z,4.40
2022-08-10T17:08:49.073Z,4.63
2022-08-10T17:11:18.537Z,2.55
2022-08-10T17:13:46.399Z,8.23
2022-08-10T17:16:17.154Z,4.13
2022-08-10T17:18:47.060Z,8.40
2022-08-10T17:21:28.113Z,6.43
2022-08-10T17:23:58.100Z,3.55
2022-08-10T17:26:37.486Z,4.35
2022-08-10T17:29:58.166Z,6.45
2022-08-10T17:32:21.267Z,7.18
2022-08-10T17:34:53.715Z,3.55
2022-08-10T17:37:27.763Z,6.18
2022-08-10T17:40:11.496Z,5.28
2022-08-10T17:42:47.364Z,8.35
2022-08-10T17:45:46.693Z,7.28
2022-08-10T17:48:12.049Z,7.90
2022-08-10T17:50:46.123Z,2.75
2022-08-10T17:53:27.834Z,5.55
2022-08-10T17:56:18.161Z,5.30
2022-08-10T17:58:57.418Z,4.40
2022-08-10T18:01:40.293Z,5.22
2022-08-10T18:04:21.668Z,4.65
2022-08-10T18:07:13.536Z,4.93
2022-08-10T18:09:50.598Z,5.60
2022-08-10T18:12:30.198Z,3.58
2022-08-10T18:15:13.266Z,5.97
2022-08-10T18:17:46.104Z,8.38
2022-08-10T18:20:15.490Z,6.32
2022-08-10T18:22:50.874Z,6.28
2022-08-10T18:25:27.909Z,3.40
2022-08-10T18:28:03.779Z,7.72
2022-08-10T18:30:45.166Z,8.65
2022-08-10T18:33:19.133Z,4.53
2022-08-10T18:35:48.056Z,5.60
2022-08-10T18:38:17.565Z,3.95
2022-08-10T18:40:52.685Z,7.88
2022-08-10T18:44:06.047Z,6.00
2022-08-10T18:46:22.241Z,4.18
2022-08-10T18:49:08.916Z,5.03
2022-08-10T18:51:46.786Z,3.38
2022-08-10T18:54:38.912Z,4.60
2022-08-10T18:57:39.527Z,6.07
2022-08-10T19:00:12.286Z,6.40
2022-08-10T19:03:17.339Z,5.28
2022-08-10T19:06:05.683Z,4.57
2022-08-10T19:09:46.165Z,6.75
2022-08-10T19:12:31.131Z,4.40
2022-08-10T19:15:09.410Z,5.35
2022-08-10T19:18:17.909Z,8.30
2022-08-10T19:21:30.011Z,5.78
2022-08-10T19:24:04.752Z,6.97
2022-08-10T19:27:05.823Z,5.68
2022-08-10T19:30:12.393Z,5.50
2022-08-10T19:33:13.702Z,5.60
2022-08-10T19:36:13.266Z,7.32
2022-08-10T19:38:51.248Z,5.53
2022-08-10T19:41:42.194Z,8.38
2022-08-10T19:44:18.891Z,6.43
2022-08-10T19:46:59.847Z,5.97
2022-08-10T19:49:42.578Z,4.45
2022-08-10T19:52:36.383Z,6.75
2022-08-10T19:55:15.706Z,9.13
2022-08-10T19:58:07.660Z,5.18
2022-08-10T20:01:07.917Z,4.68
2022-08-10T20:03:54.738Z,7.57
2022-08-10T20:09:10.776Z,7.20
2022-08-10T20:21:06.619Z,7.65
2022-08-10T20:27:57.826Z,7.07
2022-08-10T20:30:23.646Z,7.20
2022-08-10T20:32:59.852Z,8.82
2022-08-10T20:35:35.857Z,9.25
2022-08-10T20:38:17.437Z,7.70
2022-08-10T20:40:50.423Z,7.05
2022-08-10T20:43:20.874Z,7.00
2022-08-10T20:46:09.528Z,8.65
2022-08-10T20:48:44.411Z,6.95
2022-08-10T20:51:19.181Z,9.93
2022-08-10T20:53:52.584Z,7.82
2022-08-10T20:56:42.176Z,6.45
2022-08-10T21:00:02.355Z,7.70
2022-08-10T21:02:46.500Z,4.25
2022-08-10T21:05:43.455Z,5.82
2022-08-10T21:08:16.339Z,7.25
2022-08-10T21:11:07.090Z,6.22
2022-08-10T21:13:49.456Z,6.80
2022-08-10T21:16:25.947Z,8.32
2022-08-10T21:19:19.168Z,9.85
2022-08-10T21:22:05.301Z,5.13
2022-08-10T21:24:46.157Z,9.57
2022-08-10T21:27:43.205Z,6.05
2022-08-10T21:30:20.743Z,6.13
2022-08-10T21:33:21.634Z,5.20
2022-08-10T21:36:02.007Z,5.15
2022-08-10T21:38:47.566Z,6.95
2022-08-10T21:42:07.148Z,8.95
2022-08-10T21:45:47.503Z,5.68
2022-08-10T21:52:29.390Z,4.90
2022-08-10T21:56:14.366Z,4.88
2022-08-10T22:16:10.891Z,3.85
2022-08-10T22:19:03.867Z,5.53
2022-08-10T22:22:07.998Z,10.35
2022-08-10T22:25:52.011Z,7.97
2022-08-10T22:28:38.648Z,8.60
2022-08-10T22:31:45.412Z,11.18
2022-08-10T22:34:51.221Z,5.35
2022-08-10T22:38:08.050Z,6.13
2022-08-10T22:40:54.292Z,8.88
2022-08-10T22:43:49.852Z,6.83
2022-08-10T22:46:46.428Z,8.32
2022-08-10T22:49:20.915Z,8.98
2022-08-10T22:51:57.925Z,7.13
2022-08-10T22:55:31.023Z,8.23
2022-08-10T22:58:17.195Z,13.70
2022-08-10T23:00:58.744Z,5.50
2022-08-10T23:03:28.327Z,9.07
2022-08-10T23:06:07.533Z,7.90
2022-08-10T23:09:04.118Z,11.63
2022-08-10T23:11:38.576Z,12.38
2022-08-10T23:14:12.082Z,5.47
2022-08-10T23:17:08.924Z,13.55
2022-08-10T23:19:45.422Z,9.45
2022-08-10T23:22:16.255Z,9.18
2022-08-10T23:24:45.781Z,8.30
2022-08-10T23:27:37.337Z,6.03
2022-08-10T23:30:10.509Z,7.88
2022-08-10T23:32:48.206Z,5.15
2022-08-10T23:36:28.089Z,4.97
2022-08-10T23:38:12.360Z,8.10
2022-08-10T23:40:49.855Z,9.57
2022-08-10T23:43:19.572Z,6.68
2022-08-10T23:45:57.154Z,8.10
2022-08-10T23:48:34.581Z,8.45
2022-08-10T23:51:16.057Z,5.70
2022-08-10T23:53:48.002Z,7.65
2022-08-10T23:56:22.382Z,4.53
2022-08-10T23:59:00.765Z,4.50
